Terminal Aerodrome Forecast
Issued by NWS Shreveport, LA

Home | Current Version | Previous Version | Text Only | Print | Product List | Glossary On
Versions: 1 2 3 4 5 6 7 8 9 10 11 12 13 14 15 16 17 18 19
000
FTUS44 KSHV 271145
TAFLFK
TAF
KLFK 271145Z 2712/2812 VRB03KT 6SM BR SCT002 SCT110 BKN130
      TEMPO 2712/2714 3SM BR BKN002
     FM271400 VRB03KT 6SM BR VCSH BKN005
      TEMPO 2714/2716 P6SM NSW SCT005 BKN090
     FM271600 05005KT P6SM VCSH SCT015 BKN090
     FM271700 07005KT P6SM VCSH BKN025
     FM271900 09006KT P6SM VCSH BKN035
     FM272100 10006KT P6SM VCTS BKN045CB
     FM280200 VRB03KT P6SM VCSH SCT045 BKN100 OVC150=

USA.gov is the U.S. government's official web portal to all federal, state and local government web resources and services.